TimeCST,TemperatureF,Dew PointF,Humidity,Sea Level PressureIn,VisibilityMPH,Wind Direction,Wind SpeedMPH,Gust SpeedMPH,PrecipitationIn,Events,Conditions,WindDirDegrees,DateUTC
12:53 AM,52.0,15.1,23,29.75,10.0,SW,19.6,-,N/A,,Clear,230,2012-03-06 06:53:00
1:53 AM,54.0,14.0,21,29.73,10.0,West,10.4,-,N/A,,Clear,260,2012-03-06 07:53:00
2:53 AM,46.9,16.0,29,29.74,10.0,SW,13.8,-,N/A,,Clear,220,2012-03-06 08:53:00
3:53 AM,46.0,16.0,30,29.72,10.0,SW,12.7,-,N/A,,Clear,230,2012-03-06 09:53:00
4:53 AM,52.0,15.1,23,29.70,10.0,WSW,15.0,-,N/A,,Clear,240,2012-03-06 10:53:00
5:53 AM,46.0,16.0,30,29.71,10.0,South,9.2,-,N/A,,Clear,180,2012-03-06 11:53:00
6:53 AM,43.0,16.0,34,29.74,10.0,South,9.2,-,N/A,,Clear,180,2012-03-06 12:53:00
7:53 AM,43.0,17.1,35,29.74,10.0,SW,8.1,-,N/A,,Clear,220,2012-03-06 13:53:00
8:53 AM,51.1,19.0,28,29.72,10.0,SSW,9.2,-,N/A,,Clear,210,2012-03-06 14:53:00
9:53 AM,60.1,19.0,20,29.70,10.0,SW,8.1,-,N/A,,Clear,220,2012-03-06 15:53:00
10:53 AM,73.0,19.9,14,29.64,10.0,SSW,11.5,-,N/A,,Clear,200,2012-03-06 16:53:00
11:53 AM,73.0,21.9,15,29.63,10.0,South,18.4,26.5,N/A,,Clear,190,2012-03-06 17:53:00
12:53 PM,79.0,14.0,9,29.57,10.0,SSW,20.7,27.6,N/A,,Clear,200,2012-03-06 18:53:00
1:53 PM,84.0,10.0,6,29.51,10.0,SSW,27.6,35.7,N/A,,Clear,210,2012-03-06 19:53:00
2:53 PM,79.0,9.0,7,29.52,10.0,SW,29.9,41.4,N/A,,Clear,220,2012-03-06 20:53:00
3:53 PM,80.1,12.9,8,29.49,10.0,SSW,31.1,42.6,N/A,,Clear,210,2012-03-06 21:53:00
5:53 PM,77.0,17.1,10,29.47,10.0,SSW,15.0,26.5,N/A,,Clear,200,2012-03-06 23:53:00
6:53 PM,75.0,27.0,17,29.49,10.0,South,21.9,-,N/A,,Clear,180,2012-03-07 00:53:00
7:53 PM,71.1,30.9,23,29.49,10.0,South,23.0,33.4,N/A,,Clear,170,2012-03-07 01:53:00
8:53 PM,68.0,37.0,32,29.51,10.0,South,21.9,32.2,N/A,,Clear,180,2012-03-07 02:53:00
9:53 PM,64.0,43.0,46,29.54,10.0,South,23.0,35.7,N/A,,Clear,180,2012-03-07 03:53:00
10:53 PM,61.0,43.0,52,29.53,10.0,South,21.9,31.1,N/A,,Clear,190,2012-03-07 04:53:00
11:53 PM,59.0,43.0,55,29.53,10.0,South,24.2,32.2,N/A,,Clear,190,2012-03-07 05:53:00